sensor_id;sensor_type;location;lat;lon;timestamp;pressure;altitude;pressure_sealevel;temperature;humidity
75775;BME280;64505;51.458;7.556;2022-12-18T00:00:30;100970.91;;;-6.86;83.73
75775;BME280;64505;51.458;7.556;2022-12-18T00:02:32;100975.31;;;-6.88;83.21
75775;BME280;64505;51.458;7.556;2022-12-18T00:04:33;100971.03;;;-6.87;83.62
75775;BME280;64505;51.458;7.556;2022-12-18T00:06:35;100973.81;;;-6.92;83.50
75775;BME280;64505;51.458;7.556;2022-12-18T00:08:37;100979.81;;;-6.91;83.63
75775;BME280;64505;51.458;7.556;2022-12-18T00:10:38;100979.81;;;-6.91;83.57
75775;BME280;64505;51.458;7.556;2022-12-18T00:12:39;100979.13;;;-6.95;83.87
75775;BME280;64505;51.458;7.556;2022-12-18T00:14:41;100978.31;;;-6.95;83.78
75775;BME280;64505;51.458;7.556;2022-12-18T00:16:44;100975.91;;;-6.99;83.58
75775;BME280;64505;51.458;7.556;2022-12-18T00:18:48;100969.91;;;-6.99;83.79
75775;BME280;64505;51.458;7.556;2022-12-18T00:20:50;100976.69;;;-6.98;83.69
75775;BME280;64505;51.458;7.556;2022-12-18T00:22:52;100979.28;;;-6.98;84.23
75775;BME280;64505;51.458;7.556;2022-12-18T00:24:53;100986.09;;;-6.97;84.15
75775;BME280;64505;51.458;7.556;2022-12-18T00:26:55;100979.38;;;-7.00;84.01
75775;BME280;64505;51.458;7.556;2022-12-18T00:29:01;100977.63;;;-6.99;83.51
75775;BME280;64505;51.458;7.556;2022-12-18T00:31:12;100973.56;;;-7.03;83.74
75775;BME280;64505;51.458;7.556;2022-12-18T00:33:13;100976.13;;;-7.03;83.37
75775;BME280;64505;51.458;7.556;2022-12-18T00:35:15;100983.84;;;-7.03;83.46
75775;BME280;64505;51.458;7.556;2022-12-18T00:37:16;100973.56;;;-7.03;83.49
75775;BME280;64505;51.458;7.556;2022-12-18T00:39:20;100979.59;;;-7.04;83.50
75775;BME280;64505;51.458;7.556;2022-12-18T00:41:22;100985.75;;;-7.07;83.52
75775;BME280;64505;51.458;7.556;2022-12-18T00:43:42;100984.84;;;-7.06;84.24
75775;BME280;64505;51.458;7.556;2022-12-18T00:45:43;100988.31;;;-7.07;84.10
75775;BME280;64505;51.458;7.556;2022-12-18T00:47:45;100989.22;;;-7.08;84.12
75775;BME280;64505;51.458;7.556;2022-12-18T00:49:47;100997.03;;;-7.09;83.92
75775;BME280;64505;51.458;7.556;2022-12-18T00:51:48;100997.09;;;-7.11;83.43
75775;BME280;64505;51.458;7.556;2022-12-18T00:53:50;100995.34;;;-7.10;83.94
75775;BME280;64505;51.458;7.556;2022-12-18T00:55:52;100992.00;;;-7.12;84.17
75775;BME280;64505;51.458;7.556;2022-12-18T00:57:53;100993.63;;;-7.10;83.37
75775;BME280;64505;51.458;7.556;2022-12-18T00:59:54;100990.13;;;-7.09;83.52
75775;BME280;64505;51.458;7.556;2022-12-18T01:01:56;100989.38;;;-7.11;83.30
75775;BME280;64505;51.458;7.556;2022-12-18T01:03:59;100990.22;;;-7.10;83.10
75775;BME280;64505;51.458;7.556;2022-12-18T01:06:09;100997.91;;;-7.10;83.89
75775;BME280;64505;51.458;7.556;2022-12-18T01:08:10;100990.22;;;-7.10;84.07
75775;BME280;64505;51.458;7.556;2022-12-18T01:10:13;100993.53;;;-7.08;84.10
75775;BME280;64505;51.458;7.556;2022-12-18T01:12:14;100985.97;;;-7.11;83.62
75775;BME280;64505;51.458;7.556;2022-12-18T01:14:16;100985.06;;;-7.10;83.16
75775;BME280;64505;51.458;7.556;2022-12-18T01:16:17;100980.84;;;-7.11;83.37
75775;BME280;64505;51.458;7.556;2022-12-18T01:18:19;100977.44;;;-7.12;83.03
75775;BME280;64505;51.458;7.556;2022-12-18T01:20:20;100977.25;;;-7.09;83.63
75775;BME280;64505;51.458;7.556;2022-12-18T01:22:22;100982.28;;;-7.06;84.25
75775;BME280;64505;51.458;7.556;2022-12-18T01:24:23;100984.00;;;-7.06;83.70
75775;BME280;64505;51.458;7.556;2022-12-18T01:26:25;100986.81;;;-7.11;83.63
75775;BME280;64505;51.458;7.556;2022-12-18T01:28:28;100982.34;;;-7.07;83.53
75775;BME280;64505;51.458;7.556;2022-12-18T01:30:29;100979.78;;;-7.07;83.47
75775;BME280;64505;51.458;7.556;2022-12-18T01:32:31;100992.63;;;-7.07;83.71
75775;BME280;64505;51.458;7.556;2022-12-18T01:34:35;100995.34;;;-7.10;83.14
75775;BME280;64505;51.458;7.556;2022-12-18T01:36:38;100991.03;;;-7.10;83.39
75775;BME280;64505;51.458;7.556;2022-12-18T01:38:40;100987.53;;;-7.09;82.75
75775;BME280;64505;51.458;7.556;2022-12-18T01:40:41;100994.44;;;-7.09;83.40
75775;BME280;64505;51.458;7.556;2022-12-18T01:42:43;100996.25;;;-7.11;83.20
75775;BME280;64505;51.458;7.556;2022-12-18T01:44:54;101001.22;;;-7.08;83.67
75775;BME280;64505;51.458;7.556;2022-12-18T01:46:56;100997.75;;;-7.07;83.52
75775;BME280;64505;51.458;7.556;2022-12-18T01:48:59;100995.13;;;-7.06;83.18
75775;BME280;64505;51.458;7.556;2022-12-18T01:51:02;100981.44;;;-7.06;83.22
75775;BME280;64505;51.458;7.556;2022-12-18T01:53:07;100984.84;;;-7.06;83.07
75775;BME280;64505;51.458;7.556;2022-12-18T01:55:11;100975.47;;;-7.07;83.49
75775;BME280;64505;51.458;7.556;2022-12-18T01:57:13;100977.19;;;-7.07;83.02
75775;BME280;64505;51.458;7.556;2022-12-18T01:59:15;100976.47;;;-7.09;83.66
75775;BME280;64505;51.458;7.556;2022-12-18T02:01:17;100978.88;;;-7.06;82.62
75775;BME280;64505;51.458;7.556;2022-12-18T02:03:44;100967.91;;;-7.10;83.15
75775;BME280;64505;51.458;7.556;2022-12-18T02:06:15;100972.97;;;-7.08;83.38
75775;BME280;64505;51.458;7.556;2022-12-18T02:09:14;100976.19;;;-7.05;83.91
75775;BME280;64505;51.458;7.556;2022-12-18T02:14:00;100985.81;;;-7.08;83.76
75775;BME280;64505;51.458;7.556;2022-12-18T02:18:34;100979.69;;;-7.06;83.46
75775;BME280;64505;51.458;7.556;2022-12-18T02:20:43;100974.56;;;-7.06;83.09
75775;BME280;64505;51.458;7.556;2022-12-18T02:22:58;100979.69;;;-7.06;82.91
75775;BME280;64505;51.458;7.556;2022-12-18T02:27:22;100971.31;;;-7.09;83.15
75775;BME280;64505;51.458;7.556;2022-12-18T02:29:26;100972.13;;;-7.09;83.35
75775;BME280;64505;51.458;7.556;2022-12-18T02:31:35;100971.22;;;-7.08;83.38
75775;BME280;64505;51.458;7.556;2022-12-18T02:33:38;100971.22;;;-7.08;82.94
75775;BME280;64505;51.458;7.556;2022-12-18T02:35:42;100970.38;;;-7.08;82.55
75775;BME280;64505;51.458;7.556;2022-12-18T02:37:46;100967.91;;;-7.10;83.35
75775;BME280;64505;51.458;7.556;2022-12-18T02:39:49;100964.50;;;-7.10;83.06
75775;BME280;64505;51.458;7.556;2022-12-18T02:41:52;100955.97;;;-7.11;82.66
75775;BME280;64505;51.458;7.556;2022-12-18T02:43:59;100957.81;;;-7.13;83.49
75775;BME280;64505;51.458;7.556;2022-12-18T02:46:23;100958.53;;;-7.11;83.22
75775;BME280;64505;51.458;7.556;2022-12-18T02:48:31;100959.38;;;-7.10;83.03
75775;BME280;64505;51.458;7.556;2022-12-18T02:50:45;100957.69;;;-7.11;83.16
75775;BME280;64505;51.458;7.556;2022-12-18T02:53:06;100967.97;;;-7.11;83.20
75775;BME280;64505;51.458;7.556;2022-12-18T02:57:50;100969.72;;;-7.12;83.50
75775;BME280;64505;51.458;7.556;2022-12-18T03:00:05;100979.25;;;-7.14;83.57
75775;BME280;64505;51.458;7.556;2022-12-18T03:02:18;100977.44;;;-7.12;83.88
75775;BME280;64505;51.458;7.556;2022-12-18T03:04:32;100962.16;;;-7.15;83.42
75775;BME280;64505;51.458;7.556;2022-12-18T03:07:02;100968.16;;;-7.14;83.43
75775;BME280;64505;51.458;7.556;2022-12-18T03:09:08;100971.31;;;-7.09;84.36
75775;BME280;64505;51.458;7.556;2022-12-18T03:11:12;100971.44;;;-7.12;83.95
75775;BME280;64505;51.458;7.556;2022-12-18T03:15:46;100964.69;;;-7.13;84.17
75775;BME280;64505;51.458;7.556;2022-12-18T03:17:54;100962.94;;;-7.13;83.91
75775;BME280;64505;51.458;7.556;2022-12-18T03:20:03;100954.47;;;-7.15;83.58
75775;BME280;64505;51.458;7.556;2022-12-18T03:22:06;100963.00;;;-7.14;84.17
75775;BME280;64505;51.458;7.556;2022-12-18T03:24:10;100962.16;;;-7.15;83.68
75775;BME280;64505;51.458;7.556;2022-12-18T03:26:17;100958.03;;;-7.17;83.91
75775;BME280;64505;51.458;7.556;2022-12-18T03:28:22;100961.34;;;-7.15;83.72
75775;BME280;64505;51.458;7.556;2022-12-18T03:30:24;100957.94;;;-7.16;83.12
75775;BME280;64505;51.458;7.556;2022-12-18T03:32:31;100964.84;;;-7.16;84.03
75775;BME280;64505;51.458;7.556;2022-12-18T03:34:36;100960.59;;;-7.17;83.94
75775;BME280;64505;51.458;7.556;2022-12-18T03:36:39;100959.69;;;-7.16;84.29
75775;BME280;64505;51.458;7.556;2022-12-18T03:38:40;100950.31;;;-7.17;83.48
75775;BME280;64505;51.458;7.556;2022-12-18T03:40:56;100951.00;;;-7.14;84.12
75775;BME280;64505;51.458;7.556;2022-12-18T03:45:32;100945.91;;;-7.15;84.20
75775;BME280;64505;51.458;7.556;2022-12-18T03:47:58;100943.19;;;-7.12;84.73
75775;BME280;64505;51.458;7.556;2022-12-18T03:52:38;100944.19;;;-7.15;84.66
75775;BME280;64505;51.458;7.556;2022-12-18T03:54:42;100943.13;;;-7.11;85.36
75775;BME280;64505;51.458;7.556;2022-12-18T03:56:52;100945.75;;;-7.12;84.39
75775;BME280;64505;51.458;7.556;2022-12-18T03:58:57;100949.31;;;-7.15;84.68
75775;BME280;64505;51.458;7.556;2022-12-18T04:01:02;100953.56;;;-7.14;84.41
75775;BME280;64505;51.458;7.556;2022-12-18T04:03:07;100962.28;;;-7.16;84.46
75775;BME280;64505;51.458;7.556;2022-12-18T04:05:10;100963.06;;;-7.16;84.14
75775;BME280;64505;51.458;7.556;2022-12-18T04:07:13;100963.91;;;-7.15;84.54
75775;BME280;64505;51.458;7.556;2022-12-18T04:09:15;100959.69;;;-7.16;84.08
75775;BME280;64505;51.458;7.556;2022-12-18T04:11:16;100958.88;;;-7.17;84.39
75775;BME280;64505;51.458;7.556;2022-12-18T04:13:23;100953.78;;;-7.18;84.37
75775;BME280;64505;51.458;7.556;2022-12-18T04:15:24;100952.97;;;-7.19;84.53
75775;BME280;64505;51.458;7.556;2022-12-18T04:17:26;100952.22;;;-7.21;84.29
75775;BME280;64505;51.458;7.556;2022-12-18T04:19:28;100957.44;;;-7.22;84.82
75775;BME280;64505;51.458;7.556;2022-12-18T04:21:29;100955.69;;;-7.22;84.44
75775;BME280;64505;51.458;7.556;2022-12-18T04:23:30;100955.69;;;-7.22;84.13
75775;BME280;64505;51.458;7.556;2022-12-18T04:25:32;100960.75;;;-7.20;84.78
75775;BME280;64505;51.458;7.556;2022-12-18T04:27:33;100953.13;;;-7.22;84.29
75775;BME280;64505;51.458;7.556;2022-12-18T04:29:35;100948.16;;;-7.25;84.29
75775;BME280;64505;51.458;7.556;2022-12-18T04:31:36;100953.06;;;-7.20;84.28
75775;BME280;64505;51.458;7.556;2022-12-18T04:33:38;100963.16;;;-7.17;84.82
75775;BME280;64505;51.458;7.556;2022-12-18T04:35:40;100959.53;;;-7.13;84.98
75775;BME280;64505;51.458;7.556;2022-12-18T04:37:42;100961.72;;;-7.06;85.29
75775;BME280;64505;51.458;7.556;2022-12-18T04:39:43;100956.63;;;-7.07;84.72
75775;BME280;64505;51.458;7.556;2022-12-18T04:41:45;100954.91;;;-7.07;85.08
75775;BME280;64505;51.458;7.556;2022-12-18T04:43:46;100957.38;;;-7.05;84.82
75775;BME280;64505;51.458;7.556;2022-12-18T04:45:48;100955.41;;;-7.00;85.58
75775;BME280;64505;51.458;7.556;2022-12-18T04:47:49;100955.34;;;-6.99;85.83
75775;BME280;64505;51.458;7.556;2022-12-18T04:49:50;100961.88;;;-6.93;85.27
75775;BME280;64505;51.458;7.556;2022-12-18T04:51:52;100964.22;;;-6.88;85.59
75775;BME280;64505;51.458;7.556;2022-12-18T04:53:54;100952.34;;;-6.91;85.49
75775;BME280;64505;51.458;7.556;2022-12-18T04:56:06;100952.34;;;-6.91;85.38
75775;BME280;64505;51.458;7.556;2022-12-18T04:58:08;100959.13;;;-6.90;85.40
75775;BME280;64505;51.458;7.556;2022-12-18T05:00:10;100951.53;;;-6.91;85.57
75775;BME280;64505;51.458;7.556;2022-12-18T05:02:11;100960.22;;;-6.94;85.16
75775;BME280;64505;51.458;7.556;2022-12-18T05:04:13;100962.22;;;-6.83;85.84
75775;BME280;64505;51.458;7.556;2022-12-18T05:06:14;100958.84;;;-6.84;85.39
75775;BME280;64505;51.458;7.556;2022-12-18T05:08:16;100956.09;;;-6.81;85.53
75775;BME280;64505;51.458;7.556;2022-12-18T05:10:17;100949.28;;;-6.82;85.20
75775;BME280;64505;51.458;7.556;2022-12-18T05:12:19;100951.84;;;-6.82;85.49
75775;BME280;64505;51.458;7.556;2022-12-18T05:14:21;100939.50;;;-6.75;85.04
75775;BME280;64505;51.458;7.556;2022-12-18T05:16:22;100943.38;;;-6.68;85.05
75775;BME280;64505;51.458;7.556;2022-12-18T05:18:24;100937.69;;;-6.73;85.87
75775;BME280;64505;51.458;7.556;2022-12-18T05:20:26;100933.44;;;-6.74;85.48
75775;BME280;64505;51.458;7.556;2022-12-18T05:22:28;100932.59;;;-6.75;85.35
75775;BME280;64505;51.458;7.556;2022-12-18T05:24:30;100933.50;;;-6.76;85.41
75775;BME280;64505;51.458;7.556;2022-12-18T05:26:31;100929.31;;;-6.77;85.33
75775;BME280;64505;51.458;7.556;2022-12-18T05:28:33;100928.38;;;-6.76;85.65
75775;BME280;64505;51.458;7.556;2022-12-18T05:30:35;100924.81;;;-6.73;85.40
75775;BME280;64505;51.458;7.556;2022-12-18T05:32:37;100923.22;;;-6.76;84.96
75775;BME280;64505;51.458;7.556;2022-12-18T05:34:39;100918.75;;;-6.72;85.33
75775;BME280;64505;51.458;7.556;2022-12-18T05:36:40;100914.53;;;-6.73;85.92
75775;BME280;64505;51.458;7.556;2022-12-18T05:38:41;100914.38;;;-6.70;85.52
75775;BME280;64505;51.458;7.556;2022-12-18T05:40:43;100911.44;;;-6.64;85.71
75775;BME280;64505;51.458;7.556;2022-12-18T05:42:45;100917.50;;;-6.65;85.57
75775;BME280;64505;51.458;7.556;2022-12-18T05:44:46;100913.19;;;-6.65;85.67
75775;BME280;64505;51.458;7.556;2022-12-18T05:46:47;100916.59;;;-6.64;85.12
75775;BME280;64505;51.458;7.556;2022-12-18T05:48:49;100915.59;;;-6.62;85.03
75775;BME280;64505;51.458;7.556;2022-12-18T05:50:51;100913.13;;;-6.63;84.57
75775;BME280;64505;51.458;7.556;2022-12-18T05:52:53;100914.91;;;-6.65;84.49
75775;BME280;64505;51.458;7.556;2022-12-18T05:54:54;100917.25;;;-6.61;84.62
75775;BME280;64505;51.458;7.556;2022-12-18T05:56:56;100924.13;;;-6.61;84.97
75775;BME280;64505;51.458;7.556;2022-12-18T05:58:58;100935.00;;;-6.56;84.99
75775;BME280;64505;51.458;7.556;2022-12-18T06:01:07;100941.72;;;-6.54;84.19
75775;BME280;64505;51.458;7.556;2022-12-18T06:03:10;100942.50;;;-6.52;84.41
75775;BME280;64505;51.458;7.556;2022-12-18T06:05:12;100943.38;;;-6.53;84.00
75775;BME280;64505;51.458;7.556;2022-12-18T06:07:13;100955.41;;;-6.53;84.66
75775;BME280;64505;51.458;7.556;2022-12-18T06:09:15;100947.28;;;-6.45;84.35
75775;BME280;64505;51.458;7.556;2022-12-18T06:11:19;100959.06;;;-6.41;84.73
75775;BME280;64505;51.458;7.556;2022-12-18T06:13:22;100951.66;;;-6.32;84.69
75775;BME280;64505;51.458;7.556;2022-12-18T06:15:23;100948.59;;;-6.23;84.76
75775;BME280;64505;51.458;7.556;2022-12-18T06:17:32;100952.81;;;-6.22;83.82
75775;BME280;64505;51.458;7.556;2022-12-18T06:19:33;100954.72;;;-6.25;84.46
75775;BME280;64505;51.458;7.556;2022-12-18T06:21:35;100955.22;;;-6.19;84.19
75775;BME280;64505;51.458;7.556;2022-12-18T06:23:36;100953.75;;;-6.23;83.68
75775;BME280;64505;51.458;7.556;2022-12-18T06:25:39;100963.28;;;-6.25;82.97
75775;BME280;64505;51.458;7.556;2022-12-18T06:27:41;100962.44;;;-6.25;83.62
75775;BME280;64505;51.458;7.556;2022-12-18T06:29:43;100969.09;;;-6.21;83.35
75775;BME280;64505;51.458;7.556;2022-12-18T06:31:44;100972.66;;;-6.24;83.55
75775;BME280;64505;51.458;7.556;2022-12-18T06:33:46;100969.19;;;-6.23;82.37
75775;BME280;64505;51.458;7.556;2022-12-18T06:35:48;100971.66;;;-6.21;82.32
75775;BME280;64505;51.458;7.556;2022-12-18T06:37:49;100964.75;;;-6.21;82.14
75775;BME280;64505;51.458;7.556;2022-12-18T06:39:52;100973.06;;;-6.16;81.98
75775;BME280;64505;51.458;7.556;2022-12-18T06:41:53;100975.06;;;-6.21;82.71
75775;BME280;64505;51.458;7.556;2022-12-18T06:43:55;100977.88;;;-6.25;82.80
75775;BME280;64505;51.458;7.556;2022-12-18T06:46:01;100980.22;;;-6.21;81.90
75775;BME280;64505;51.458;7.556;2022-12-18T06:48:02;100978.47;;;-6.20;82.15
75775;BME280;64505;51.458;7.556;2022-12-18T06:50:04;100968.34;;;-6.23;82.30
75775;BME280;64505;51.458;7.556;2022-12-18T06:52:06;100975.81;;;-6.19;82.91
75775;BME280;64505;51.458;7.556;2022-12-18T06:54:08;100963.44;;;-6.12;83.41
75775;BME280;64505;51.458;7.556;2022-12-18T06:56:09;100962.25;;;-6.07;82.33
75775;BME280;64505;51.458;7.556;2022-12-18T06:58:11;100966.72;;;-5.94;82.75
75775;BME280;64505;51.458;7.556;2022-12-18T07:00:13;100969.28;;;-5.94;82.64
75775;BME280;64505;51.458;7.556;2022-12-18T07:02:14;100965.53;;;-5.89;81.87
75775;BME280;64505;51.458;7.556;2022-12-18T07:04:16;100969.47;;;-5.83;82.79
75775;BME280;64505;51.458;7.556;2022-12-18T07:06:19;100964.06;;;-5.79;82.10
75775;BME280;64505;51.458;7.556;2022-12-18T07:08:21;100952.66;;;-5.75;82.58
75775;BME280;64505;51.458;7.556;2022-12-18T07:10:23;100951.94;;;-5.63;82.26
75775;BME280;64505;51.458;7.556;2022-12-18T07:12:24;100956.19;;;-5.62;82.93
75775;BME280;64505;51.458;7.556;2022-12-18T07:14:25;100947.81;;;-5.65;81.91
75775;BME280;64505;51.458;7.556;2022-12-18T07:16:27;100946.16;;;-5.52;82.30
75775;BME280;64505;51.458;7.556;2022-12-18T07:18:29;100951.13;;;-5.49;81.27
75775;BME280;64505;51.458;7.556;2022-12-18T07:20:31;100959.31;;;-5.42;80.67
75775;BME280;64505;51.458;7.556;2022-12-18T07:22:32;100956.94;;;-5.46;81.95
75775;BME280;64505;51.458;7.556;2022-12-18T07:24:34;100958.59;;;-5.30;80.87
75775;BME280;64505;51.458;7.556;2022-12-18T07:26:36;100959.63;;;-5.33;82.18
75775;BME280;64505;51.458;7.556;2022-12-18T07:28:39;100950.41;;;-5.23;81.30
75775;BME280;64505;51.458;7.556;2022-12-18T07:30:40;100957.13;;;-5.20;79.77
75775;BME280;64505;51.458;7.556;2022-12-18T07:32:42;100951.31;;;-5.24;80.00
75775;BME280;64505;51.458;7.556;2022-12-18T07:34:43;100942.59;;;-5.21;80.08
75775;BME280;64505;51.458;7.556;2022-12-18T07:36:45;100947.84;;;-5.09;80.33
75775;BME280;64505;51.458;7.556;2022-12-18T07:38:47;100947.31;;;-5.14;79.93
75775;BME280;64505;51.458;7.556;2022-12-18T07:40:49;100944.22;;;-5.06;79.39
75775;BME280;64505;51.458;7.556;2022-12-18T07:42:50;100936.41;;;-5.05;80.77
75775;BME280;64505;51.458;7.556;2022-12-18T07:44:51;100943.56;;;-4.96;79.72
75775;BME280;64505;51.458;7.556;2022-12-18T07:46:53;100944.31;;;-4.93;79.11
75775;BME280;64505;51.458;7.556;2022-12-18T07:48:54;100933.72;;;-4.89;78.65
75775;BME280;64505;51.458;7.556;2022-12-18T07:51:04;100934.47;;;-4.87;78.97
75775;BME280;64505;51.458;7.556;2022-12-18T07:53:06;100940.25;;;-4.83;79.39
75775;BME280;64505;51.458;7.556;2022-12-18T07:55:08;100927.78;;;-4.77;78.90
75775;BME280;64505;51.458;7.556;2022-12-18T07:57:09;100937.91;;;-4.74;78.76
75775;BME280;64505;51.458;7.556;2022-12-18T07:59:30;100931.94;;;-4.60;78.62
75775;BME280;64505;51.458;7.556;2022-12-18T08:01:33;100933.28;;;-4.55;77.51
75775;BME280;64505;51.458;7.556;2022-12-18T08:03:35;100932.25;;;-4.52;78.57
75775;BME280;64505;51.458;7.556;2022-12-18T08:05:37;100942.72;;;-4.41;77.94
75775;BME280;64505;51.458;7.556;2022-12-18T08:07:39;100936.34;;;-4.35;77.84
75775;BME280;64505;51.458;7.556;2022-12-18T08:09:40;100930.41;;;-4.23;76.37
75775;BME280;64505;51.458;7.556;2022-12-18T08:11:42;100929.81;;;-4.14;77.08
75775;BME280;64505;51.458;7.556;2022-12-18T08:13:44;100928.81;;;-3.99;74.87
75775;BME280;64505;51.458;7.556;2022-12-18T08:15:45;100928.06;;;-4.01;75.43
75775;BME280;64505;51.458;7.556;2022-12-18T08:17:47;100930.88;;;-4.04;76.63
75775;BME280;64505;51.458;7.556;2022-12-18T08:19:48;100920.97;;;-3.98;76.15
75775;BME280;64505;51.458;7.556;2022-12-18T08:21:50;100913.31;;;-3.99;76.06
75775;BME280;64505;51.458;7.556;2022-12-18T08:23:53;100911.16;;;-3.92;75.93
75775;BME280;64505;51.458;7.556;2022-12-18T08:25:55;100911.06;;;-3.91;75.95
75775;BME280;64505;51.458;7.556;2022-12-18T08:27:56;100903.75;;;-3.84;75.76
75775;BME280;64505;51.458;7.556;2022-12-18T08:29:57;100897.44;;;-3.80;75.24
75775;BME280;64505;51.458;7.556;2022-12-18T08:31:59;100896.72;;;-3.70;74.37
75775;BME280;64505;51.458;7.556;2022-12-18T08:34:00;100893.31;;;-3.70;75.47
75775;BME280;64505;51.458;7.556;2022-12-18T08:36:03;100891.75;;;-3.60;74.70
75775;BME280;64505;51.458;7.556;2022-12-18T08:38:05;100886.91;;;-3.52;74.31
75775;BME280;64505;51.458;7.556;2022-12-18T08:40:07;100881.28;;;-3.46;74.42
75775;BME280;64505;51.458;7.556;2022-12-18T08:42:09;100868.91;;;-3.41;74.07
75775;BME280;64505;51.458;7.556;2022-12-18T08:44:29;100851.59;;;-3.28;72.97
75775;BME280;64505;51.458;7.556;2022-12-18T08:46:41;100860.19;;;-3.27;74.21
75775;BME280;64505;51.458;7.556;2022-12-18T08:48:43;100862.84;;;-3.29;73.84
75775;BME280;64505;51.458;7.556;2022-12-18T08:50:56;100856.53;;;-3.12;72.76
75775;BME280;64505;51.458;7.556;2022-12-18T08:52:58;100860.22;;;-3.04;72.58
75775;BME280;64505;51.458;7.556;2022-12-18T08:54:59;100856.25;;;-2.97;71.97
75775;BME280;64505;51.458;7.556;2022-12-18T08:57:01;100848.41;;;-2.95;73.21
75775;BME280;64505;51.458;7.556;2022-12-18T08:59:03;100847.97;;;-2.89;71.86
75775;BME280;64505;51.458;7.556;2022-12-18T09:01:08;100840.94;;;-2.87;72.81
75775;BME280;64505;51.458;7.556;2022-12-18T09:03:15;100844.13;;;-2.83;72.44
75775;BME280;64505;51.458;7.556;2022-12-18T09:05:17;100855.19;;;-2.81;72.50
75775;BME280;64505;51.458;7.556;2022-12-18T09:07:18;100857.41;;;-2.64;72.14
75775;BME280;64505;51.458;7.556;2022-12-18T09:09:19;100861.91;;;-2.55;71.07
75775;BME280;64505;51.458;7.556;2022-12-18T09:11:25;100865.00;;;-2.50;71.56
75775;BME280;64505;51.458;7.556;2022-12-18T09:13:28;100867.97;;;-2.43;71.38
75775;BME280;64505;51.458;7.556;2022-12-18T09:15:29;100862.94;;;-2.34;69.98
75775;BME280;64505;51.458;7.556;2022-12-18T09:17:31;100851.78;;;-2.23;70.38
75775;BME280;64505;51.458;7.556;2022-12-18T09:19:32;100848.53;;;-2.14;69.50
75775;BME280;64505;51.458;7.556;2022-12-18T09:21:37;100851.22;;;-2.16;70.17
75775;BME280;64505;51.458;7.556;2022-12-18T09:23:54;100855.75;;;-2.07;69.59
75775;BME280;64505;51.458;7.556;2022-12-18T09:26:00;100844.41;;;-2.06;70.38
75775;BME280;64505;51.458;7.556;2022-12-18T09:28:10;100842.91;;;-1.97;69.20
75775;BME280;64505;51.458;7.556;2022-12-18T09:30:12;100839.63;;;-1.88;68.56
75775;BME280;64505;51.458;7.556;2022-12-18T09:32:14;100836.59;;;-1.82;67.90
75775;BME280;64505;51.458;7.556;2022-12-18T09:34:27;100838.59;;;-1.74;68.03
75775;BME280;64505;51.458;7.556;2022-12-18T09:36:28;100842.13;;;-1.75;69.75
75775;BME280;64505;51.458;7.556;2022-12-18T09:38:30;100842.47;;;-1.69;67.34
75775;BME280;64505;51.458;7.556;2022-12-18T09:40:35;100849.44;;;-1.58;66.41
75775;BME280;64505;51.458;7.556;2022-12-18T09:42:38;100844.84;;;-1.55;67.59
75775;BME280;64505;51.458;7.556;2022-12-18T09:45:03;100833.88;;;-1.47;66.68
75775;BME280;64505;51.458;7.556;2022-12-18T09:47:30;100832.59;;;-1.30;65.08
75775;BME280;64505;51.458;7.556;2022-12-18T09:49:39;100819.72;;;-1.32;68.08
75775;BME280;64505;51.458;7.556;2022-12-18T09:51:49;100820.91;;;-1.25;66.91
75775;BME280;64505;51.458;7.556;2022-12-18T09:53:56;100819.47;;;-1.18;66.02
75775;BME280;64505;51.458;7.556;2022-12-18T09:56:02;100809.56;;;-1.13;66.93
75775;BME280;64505;51.458;7.556;2022-12-18T10:00:20;100812.34;;;-1.05;67.53
75775;BME280;64505;51.458;7.556;2022-12-18T10:02:24;100807.84;;;-0.91;64.60
75775;BME280;64505;51.458;7.556;2022-12-18T10:04:29;100811.41;;;-0.92;66.25
75775;BME280;64505;51.458;7.556;2022-12-18T10:10:50;100817.72;;;-0.74;66.83
75775;BME280;64505;51.458;7.556;2022-12-18T10:15:24;100816.59;;;-0.61;66.37
75775;BME280;64505;51.458;7.556;2022-12-18T10:17:38;100804.06;;;-0.56;66.29
75775;BME280;64505;51.458;7.556;2022-12-18T10:19:57;100791.88;;;-0.44;64.38
75775;BME280;64505;51.458;7.556;2022-12-18T10:26:21;100786.97;;;-0.17;65.02
75775;BME280;64505;51.458;7.556;2022-12-18T10:28:23;100771.81;;;-0.12;64.14
75775;BME280;64505;51.458;7.556;2022-12-18T10:30:26;100768.81;;;-0.07;63.17
75775;BME280;64505;51.458;7.556;2022-12-18T10:32:29;100764.78;;;0.00;62.66
75775;BME280;64505;51.458;7.556;2022-12-18T10:34:31;100775.59;;;0.05;62.61
75775;BME280;64505;51.458;7.556;2022-12-18T10:36:33;100776.63;;;0.14;61.90
75775;BME280;64505;51.458;7.556;2022-12-18T10:38:34;100774.31;;;0.20;60.89
75775;BME280;64505;51.458;7.556;2022-12-18T10:40:49;100771.19;;;0.26;60.98
75775;BME280;64505;51.458;7.556;2022-12-18T10:43:11;100760.00;;;0.35;59.01
75775;BME280;64505;51.458;7.556;2022-12-18T10:45:15;100754.53;;;0.38;60.97
75775;BME280;64505;51.458;7.556;2022-12-18T10:47:18;100747.13;;;0.43;59.94
75775;BME280;64505;51.458;7.556;2022-12-18T10:49:23;100740.47;;;0.51;61.60
75775;BME280;64505;51.458;7.556;2022-12-18T10:51:29;100743.38;;;0.57;59.78
75775;BME280;64505;51.458;7.556;2022-12-18T10:53:34;100731.84;;;0.60;58.88
75775;BME280;64505;51.458;7.556;2022-12-18T10:55:38;100718.44;;;0.64;61.62
75775;BME280;64505;51.458;7.556;2022-12-18T10:57:40;100721.59;;;0.68;62.39
75775;BME280;64505;51.458;7.556;2022-12-18T10:59:51;100728.19;;;0.72;63.17
75775;BME280;64505;51.458;7.556;2022-12-18T11:01:57;100720.38;;;0.72;62.52
75775;BME280;64505;51.458;7.556;2022-12-18T11:04:01;100721.75;;;0.76;62.41
75775;BME280;64505;51.458;7.556;2022-12-18T11:06:12;100720.38;;;0.81;61.49
75775;BME280;64505;51.458;7.556;2022-12-18T11:08:23;100719.16;;;0.85;61.65
75775;BME280;64505;51.458;7.556;2022-12-18T11:10:29;100719.59;;;0.90;61.28
75775;BME280;64505;51.458;7.556;2022-12-18T11:12:31;100715.47;;;0.97;61.64
75775;BME280;64505;51.458;7.556;2022-12-18T11:14:41;100721.34;;;0.99;60.62
75775;BME280;64505;51.458;7.556;2022-12-18T11:16:48;100720.69;;;1.07;60.47
75775;BME280;64505;51.458;7.556;2022-12-18T11:19:33;100706.56;;;1.10;60.08
75775;BME280;64505;51.458;7.556;2022-12-18T11:21:39;100705.19;;;1.15;60.24